createdAt,value
2023-05-05T00:25:46.521Z,7.29
2023-05-05T00:40:38.974Z,7.91
2023-05-05T00:55:31.424Z,6.76
2023-05-05T01:10:26.424Z,7.61
2023-05-05T01:25:34.717Z,7.01
2023-05-05T01:40:31.418Z,6.22
2023-05-05T02:25:38.938Z,6.39
2023-05-05T03:40:01.807Z,6.92
2023-05-05T04:09:47.408Z,6.56
2023-05-05T04:24:41.823Z,6.11
2023-05-05T04:39:33.953Z,5.97
2023-05-05T04:54:25.624Z,5.17
2023-05-05T05:09:18.749Z,4.90
2023-05-05T05:24:12.137Z,4.04
2023-05-05T05:39:06.035Z,4.67
2023-05-05T05:53:59.012Z,4.91
2023-05-05T06:08:54.402Z,4.40
2023-05-05T06:23:46.150Z,4.05
2023-05-05T06:38:38.304Z,4.29
2023-05-05T06:53:32.031Z,4.36
2023-05-05T07:08:27.090Z,3.58
2023-05-05T07:23:20.605Z,3.29
2023-05-05T07:38:13.371Z,3.06
2023-05-05T07:53:13.713Z,3.49
2023-05-05T08:07:58.380Z,2.45
2023-05-05T08:22:51.764Z,2.61
2023-05-05T08:37:46.808Z,2.80
2023-05-05T08:52:45.964Z,2.80
2023-05-05T09:07:43.693Z,2.66
2023-05-05T09:22:41.202Z,2.83
2023-05-05T09:37:39.793Z,2.58
2023-05-05T09:52:34.072Z,2.52
2023-05-05T10:07:28.184Z,2.49
2023-05-05T10:22:20.690Z,2.42
2023-05-05T10:37:13.686Z,3.96
2023-05-05T10:52:13.205Z,1.91
2023-05-05T11:07:14.706Z,1.92
2023-05-05T11:22:04.368Z,2.28
2023-05-05T11:36:58.141Z,1.90
2023-05-05T11:52:06.694Z,1.98
2023-05-05T12:07:06.534Z,1.68
2023-05-05T12:21:58.281Z,1.47
2023-05-05T12:36:52.098Z,2.07
2023-05-05T12:51:52.778Z,1.60
2023-05-05T13:07:14.839Z,1.73
2023-05-05T13:22:11.664Z,1.30
2023-05-05T13:37:21.411Z,1.58
2023-05-05T13:52:09.390Z,1.30
2023-05-05T14:07:05.290Z,1.07
2023-05-05T14:21:59.915Z,1.30
2023-05-05T14:36:50.554Z,1.11
2023-05-05T14:51:39.186Z,1.38
2023-05-05T15:06:29.700Z,1.66
2023-05-05T15:21:22.713Z,2.03
2023-05-05T15:36:09.912Z,2.83
2023-05-05T15:50:59.746Z,3.15
2023-05-05T16:05:51.016Z,3.58
2023-05-05T16:20:43.195Z,3.50
2023-05-05T16:35:35.760Z,3.47
2023-05-05T16:50:28.303Z,3.83
2023-05-05T17:05:21.448Z,4.09
2023-05-05T17:20:13.836Z,3.96
2023-05-05T17:35:06.535Z,4.00
2023-05-05T18:05:08.514Z,3.70
2023-05-05T18:19:56.576Z,3.96
2023-05-05T18:34:48.663Z,4.00
2023-05-05T18:49:41.342Z,3.99
2023-05-05T19:04:33.730Z,3.66
2023-05-05T19:19:26.264Z,3.62
2023-05-05T19:34:18.054Z,2.93
2023-05-05T19:49:09.576Z,4.38
2023-05-05T20:04:01.024Z,3.48
2023-05-05T20:19:10.330Z,3.27
2023-05-05T20:33:55.875Z,2.98
2023-05-05T20:48:50.942Z,3.00
2023-05-05T21:03:41.894Z,3.74
2023-05-05T21:18:34.468Z,4.11
2023-05-05T21:33:26.579Z,4.19
2023-05-05T21:48:17.978Z,3.47
2023-05-05T22:03:13.311Z,4.19
2023-05-05T22:18:09.926Z,4.00
2023-05-05T22:33:00.886Z,4.46
2023-05-05T22:47:52.535Z,4.82
2023-05-05T23:02:45.471Z,4.54
2023-05-05T23:17:37.652Z,4.79
2023-05-05T23:32:29.115Z,5.24
2023-05-05T23:47:22.081Z,5.17
